createdAt,value
2018-11-29T00:00:36.817Z,98700.20
2018-11-29T00:05:40.700Z,98689.64
2018-11-29T00:10:43.897Z,98692.12
2018-11-29T00:15:47.097Z,98689.30
2018-11-29T00:20:50.253Z,98687.36
2018-11-29T00:25:53.447Z,98683.48
2018-11-29T00:30:56.721Z,98677.09
2018-11-29T00:35:59.865Z,98682.35
2018-11-29T00:41:03.060Z,98669.89
2018-11-29T00:46:06.291Z,98671.16
2018-11-29T00:51:09.456Z,98684.59
2018-11-29T00:56:12.645Z,98685.34
2018-11-29T01:01:15.792Z,98696.51
2018-11-29T01:06:18.954Z,98693.09
2018-11-29T01:11:22.180Z,98689.30
2018-11-29T01:16:25.352Z,98690.68
2018-11-29T01:21:28.629Z,98675.09
2018-11-29T01:26:31.801Z,98671.41
2018-11-29T01:31:35.500Z,98671.97
2018-11-29T01:36:38.733Z,98660.34
2018-11-29T01:41:41.952Z,98656.05
2018-11-29T01:46:45.149Z,98662.22
2018-11-29T01:51:48.288Z,98661.92
2018-11-29T01:56:51.449Z,98654.20
2018-11-29T02:01:54.615Z,98638.03
2018-11-29T02:06:57.752Z,98620.45
2018-11-29T02:12:00.992Z,98621.00
2018-11-29T02:17:05.281Z,98618.99
2018-11-29T02:22:08.516Z,98621.99
2018-11-29T02:27:11.777Z,98630.52
2018-11-29T02:32:14.921Z,98629.00
2018-11-29T02:37:18.165Z,98614.36
2018-11-29T02:42:21.343Z,98626.16
2018-11-29T02:47:24.554Z,98616.61
2018-11-29T02:52:27.712Z,98604.27
2018-11-29T02:57:31.070Z,98598.95
2018-11-29T03:02:34.217Z,98605.09
2018-11-29T03:07:38.057Z,98602.18
2018-11-29T03:12:41.714Z,98597.43
2018-11-29T03:17:45.206Z,98593.06
2018-11-29T03:22:48.360Z,98587.72
2018-11-29T03:27:52.434Z,98575.77
2018-11-29T03:32:55.677Z,98573.23
2018-11-29T03:37:58.906Z,98574.21
2018-11-29T03:43:02.155Z,98574.83
2018-11-29T03:48:05.308Z,98558.03
2018-11-29T03:53:08.492Z,98559.98
2018-11-29T03:58:11.638Z,98571.14
2018-11-29T04:03:14.781Z,98555.23
2018-11-29T04:08:17.924Z,98552.99
2018-11-29T04:13:21.068Z,98551.43
2018-11-29T04:18:24.345Z,98550.75
2018-11-29T04:23:27.507Z,98551.63
2018-11-29T04:28:30.759Z,98552.22
2018-11-29T04:33:33.903Z,98541.30
2018-11-29T04:38:37.228Z,98532.68
2018-11-29T04:43:40.493Z,98525.47
2018-11-29T04:48:43.653Z,98511.84
2018-11-29T04:53:46.829Z,98512.84
2018-11-29T04:58:49.973Z,98500.52
2018-11-29T05:03:54.078Z,98505.19
2018-11-29T05:08:57.327Z,98495.70
2018-11-29T05:14:01.456Z,98497.77
2018-11-29T05:19:04.666Z,98498.67
2018-11-29T05:24:07.872Z,98504.11
2018-11-29T05:29:10.992Z,98512.69
2018-11-29T05:34:14.402Z,98511.80
2018-11-29T05:39:18.209Z,98523.89
2018-11-29T05:44:21.366Z,98512.39
2018-11-29T05:49:24.769Z,98511.34
2018-11-29T05:54:27.978Z,98520.27
2018-11-29T05:59:31.162Z,98530.08
2018-11-29T06:04:34.553Z,98526.95
2018-11-29T06:09:37.781Z,98521.83
2018-11-29T06:14:40.965Z,98511.48
2018-11-29T06:19:44.119Z,98513.05
2018-11-29T06:24:47.820Z,98507.66
2018-11-29T06:29:51.104Z,98524.94
2018-11-29T06:34:54.328Z,98530.07
2018-11-29T06:39:57.621Z,98533.03
2018-11-29T06:45:00.821Z,98537.65
2018-11-29T06:50:08.858Z,98530.88
2018-11-29T06:55:16.063Z,98511.58
2018-11-29T07:00:26.367Z,98502.52
2018-11-29T07:05:29.532Z,98506.91
2018-11-29T07:10:33.165Z,98496.00
2018-11-29T07:15:36.381Z,98502.91
2018-11-29T07:20:39.582Z,98492.22
2018-11-29T07:25:42.793Z,98491.45
2018-11-29T07:30:45.956Z,98488.47
2018-11-29T07:35:49.118Z,98478.94
2018-11-29T07:40:52.604Z,98472.98
2018-11-29T07:45:55.752Z,98481.98
2018-11-29T07:50:58.956Z,98487.10
2018-11-29T07:56:02.140Z,98493.51
2018-11-29T08:01:06.101Z,98487.81
2018-11-29T08:06:09.288Z,98485.99
2018-11-29T08:11:12.554Z,98474.89
2018-11-29T08:16:15.858Z,98477.31
2018-11-29T08:21:19.580Z,98473.08
2018-11-29T08:26:22.799Z,98465.53
2018-11-29T08:31:25.982Z,98457.33
2018-11-29T08:36:29.196Z,98452.82
2018-11-29T08:41:33.322Z,98457.50
2018-11-29T08:46:36.532Z,98457.84
2018-11-29T08:51:40.357Z,98455.57
2018-11-29T08:56:43.838Z,98460.53
2018-11-29T09:01:47.582Z,98460.08
2018-11-29T09:06:50.816Z,98452.83
2018-11-29T09:11:53.981Z,98445.73
2018-11-29T09:16:57.329Z,98431.13
2018-11-29T09:22:01.254Z,98423.63
2018-11-29T09:27:04.664Z,98414.13
2018-11-29T09:32:07.984Z,98418.91
2018-11-29T09:37:11.286Z,98407.13
2018-11-29T09:42:14.721Z,98410.84
2018-11-29T09:47:17.901Z,98407.91
2018-11-29T09:52:21.091Z,98401.02
2018-11-29T09:57:24.321Z,98398.43
2018-11-29T10:02:27.486Z,98390.17
2018-11-29T10:07:30.721Z,98389.38
2018-11-29T10:12:33.977Z,98386.93
2018-11-29T10:17:37.207Z,98379.84
2018-11-29T10:22:41.861Z,98364.34
2018-11-29T10:27:47.812Z,98347.74
2018-11-29T10:32:51.049Z,98333.06
2018-11-29T10:37:54.237Z,98323.55
2018-11-29T10:42:57.964Z,98305.39
2018-11-29T10:48:01.125Z,98302.38
2018-11-29T10:53:04.700Z,98301.50
2018-11-29T10:58:07.886Z,98292.91
2018-11-29T11:03:17.257Z,98290.52
2018-11-29T11:08:21.034Z,98287.97
2018-11-29T11:13:24.313Z,98287.95
2018-11-29T11:18:27.606Z,98293.84
2018-11-29T11:23:30.777Z,98293.16
2018-11-29T11:28:34.017Z,98277.87
2018-11-29T11:33:37.754Z,98266.61
2018-11-29T11:38:40.976Z,98244.20
2018-11-29T11:43:44.243Z,98237.84
2018-11-29T11:48:47.430Z,98237.03
2018-11-29T11:53:50.769Z,98234.97
2018-11-29T11:58:54.086Z,98232.19
2018-11-29T12:03:57.400Z,98223.60
2018-11-29T12:09:00.721Z,98205.77
2018-11-29T12:14:04.072Z,98209.73
2018-11-29T12:19:07.299Z,98216.44
2018-11-29T12:24:10.512Z,98206.02
2018-11-29T12:29:14.564Z,98212.02
2018-11-29T12:34:17.759Z,98215.16
2018-11-29T12:39:21.625Z,98213.41
2018-11-29T12:44:24.832Z,98211.22
2018-11-29T12:49:27.983Z,98204.44
2018-11-29T12:54:31.154Z,98194.89
2018-11-29T12:59:35.346Z,98186.89
2018-11-29T13:04:39.546Z,98182.68
2018-11-29T13:09:42.729Z,98181.61
2018-11-29T13:14:45.965Z,98170.27
2018-11-29T13:19:49.159Z,98151.60
2018-11-29T13:24:52.309Z,98156.16
2018-11-29T13:29:55.504Z,98146.77
2018-11-29T13:34:58.677Z,98154.87
2018-11-29T13:40:01.894Z,98140.81
2018-11-29T13:45:08.864Z,98130.19
2018-11-29T13:50:14.466Z,98120.92
2018-11-29T13:55:17.695Z,98126.87
2018-11-29T14:00:22.314Z,98141.61
2018-11-29T14:05:25.580Z,98131.06
2018-11-29T14:10:28.742Z,98124.97
2018-11-29T14:15:31.989Z,98130.91
2018-11-29T14:20:35.511Z,98138.09
2018-11-29T14:25:38.488Z,98140.27
2018-11-29T14:30:41.647Z,98153.22
2018-11-29T14:35:44.837Z,98157.90
2018-11-29T14:40:47.975Z,98163.34
2018-11-29T14:45:51.171Z,98160.66
2018-11-29T14:50:54.394Z,98149.05
2018-11-29T14:55:57.624Z,98139.66
2018-11-29T15:01:00.861Z,98136.15
2018-11-29T15:06:04.089Z,98132.47
2018-11-29T15:11:07.305Z,98131.59
2018-11-29T15:16:10.552Z,98126.41
2018-11-29T15:21:13.737Z,98114.61
2018-11-29T15:26:16.953Z,98107.38
2018-11-29T15:31:20.176Z,98095.61
2018-11-29T15:36:23.410Z,98092.02
2018-11-29T15:41:26.634Z,98084.89
2018-11-29T15:46:29.833Z,98088.54
2018-11-29T15:51:33.022Z,98081.70
2018-11-29T15:56:36.272Z,98076.88
2018-11-29T16:01:39.483Z,98078.94
2018-11-29T16:06:42.710Z,98065.61
2018-11-29T16:11:45.978Z,98056.75
2018-11-29T16:16:49.181Z,98054.09
2018-11-29T16:21:52.394Z,98046.61
2018-11-29T16:26:55.541Z,98028.70
2018-11-29T16:31:58.782Z,98048.11
2018-11-29T16:37:02.051Z,98080.31
2018-11-29T16:42:05.424Z,98057.81
2018-11-29T16:47:08.629Z,98049.11
2018-11-29T16:52:11.922Z,98055.59
2018-11-29T16:57:15.126Z,98059.57
2018-11-29T17:02:18.357Z,98059.07
2018-11-29T17:07:21.649Z,98054.23
2018-11-29T17:12:24.832Z,98075.36
2018-11-29T17:17:28.078Z,98061.50
2018-11-29T17:22:31.336Z,98058.08
2018-11-29T17:27:34.626Z,98055.30
2018-11-29T17:32:37.856Z,98057.55
2018-11-29T17:37:41.133Z,98054.23
2018-11-29T17:42:44.363Z,98069.17
2018-11-29T17:47:48.365Z,98058.65
2018-11-29T17:52:51.627Z,98071.78
2018-11-29T17:57:54.914Z,98081.20
2018-11-29T18:02:58.233Z,98070.72
2018-11-29T18:08:01.505Z,98061.94
2018-11-29T18:13:09.949Z,98062.77
2018-11-29T18:18:13.406Z,98062.41
2018-11-29T18:23:16.703Z,98053.91
2018-11-29T18:28:19.995Z,98069.23
2018-11-29T18:33:23.218Z,98068.69
2018-11-29T18:38:26.467Z,98054.48
2018-11-29T18:43:29.692Z,98050.84
2018-11-29T18:48:32.929Z,98042.28
2018-11-29T18:53:36.206Z,98027.92
2018-11-29T18:58:41.301Z,98022.25
2018-11-29T19:03:45.378Z,98025.56
2018-11-29T19:08:48.721Z,98028.59
2018-11-29T19:13:52.067Z,98046.00
2018-11-29T19:18:55.465Z,98052.58
2018-11-29T19:23:59.227Z,98050.63
2018-11-29T19:29:02.648Z,98049.97
2018-11-29T19:34:06.236Z,98032.14
2018-11-29T19:39:09.733Z,98036.60
2018-11-29T19:44:14.579Z,98037.36
2018-11-29T19:49:17.865Z,98032.09
2018-11-29T19:54:21.218Z,98026.31
2018-11-29T19:59:24.578Z,98034.70
2018-11-29T20:04:27.926Z,98033.19
2018-11-29T20:09:31.261Z,98025.09
2018-11-29T20:14:34.692Z,98025.73
2018-11-29T20:19:38.073Z,98019.64
2018-11-29T20:24:41.396Z,98013.70
2018-11-29T20:29:44.678Z,98010.44
2018-11-29T20:34:47.970Z,98012.83
2018-11-29T20:39:51.379Z,98012.20
2018-11-29T20:44:54.667Z,98011.32
2018-11-29T20:49:57.951Z,98017.30
2018-11-29T20:55:01.289Z,98017.19
2018-11-29T21:00:09.918Z,98020.36
2018-11-29T21:05:16.134Z,98024.65
2018-11-29T21:10:22.233Z,98027.45
2018-11-29T21:15:25.603Z,98031.25
2018-11-29T21:20:28.912Z,98027.30
2018-11-29T21:25:32.134Z,98033.14
2018-11-29T21:30:35.494Z,98032.50
2018-11-29T21:35:38.915Z,98026.68
2018-11-29T21:41:00.969Z,98034.27
2018-11-29T21:46:04.258Z,98022.62
2018-11-29T21:51:08.340Z,98016.80
2018-11-29T21:56:11.588Z,98019.29
2018-11-29T22:01:14.881Z,98027.13
2018-11-29T22:06:18.076Z,98033.69
2018-11-29T22:11:21.312Z,98028.35
2018-11-29T22:16:24.560Z,98027.05
2018-11-29T22:21:27.793Z,98035.98
2018-11-29T22:26:31.073Z,98031.81
2018-11-29T22:31:34.301Z,98041.95
2018-11-29T22:36:37.477Z,98037.63
2018-11-29T22:41:47.456Z,98035.88
2018-11-29T22:46:50.744Z,98037.13
2018-11-29T22:51:53.981Z,98030.86
2018-11-29T22:56:57.201Z,98032.34
2018-11-29T23:02:00.440Z,98027.15
2018-11-29T23:07:03.695Z,98029.81
2018-11-29T23:12:06.853Z,98027.78
2018-11-29T23:17:10.332Z,98028.23
2018-11-29T23:22:13.645Z,98032.23
2018-11-29T23:27:16.846Z,98028.73
2018-11-29T23:32:20.141Z,98012.31
2018-11-29T23:37:23.347Z,98009.00
2018-11-29T23:42:26.515Z,97998.51
2018-11-29T23:47:29.696Z,98001.41
2018-11-29T23:52:32.854Z,98004.59
2018-11-29T23:57:36.036Z,98002.36
